sensor_id;sensor_type;location;lat;lon;timestamp;P1;durP1;ratioP1;P2;durP2;ratioP2
6551;SDS011;3309;48.708;9.290;2023-04-03T00:00:55;0.80;;;0.80;;
6551;SDS011;3309;48.708;9.290;2023-04-03T00:03:21;0.90;;;0.90;;
6551;SDS011;3309;48.708;9.290;2023-04-03T00:05:47;0.90;;;0.90;;
6551;SDS011;3309;48.708;9.290;2023-04-03T00:08:13;0.87;;;0.87;;
6551;SDS011;3309;48.708;9.290;2023-04-03T00:10:40;0.80;;;0.80;;
6551;SDS011;3309;48.708;9.290;2023-04-03T00:13:06;0.80;;;0.80;;
6551;SDS011;3309;48.708;9.290;2023-04-03T00:15:33;0.90;;;0.90;;
6551;SDS011;3309;48.708;9.290;2023-04-03T00:17:59;0.83;;;0.83;;
6551;SDS011;3309;48.708;9.290;2023-04-03T00:20:25;0.80;;;0.80;;
6551;SDS011;3309;48.708;9.290;2023-04-03T00:22:52;0.90;;;0.90;;
6551;SDS011;3309;48.708;9.290;2023-04-03T00:25:18;0.70;;;0.70;;
6551;SDS011;3309;48.708;9.290;2023-04-03T00:27:44;0.80;;;0.80;;
6551;SDS011;3309;48.708;9.290;2023-04-03T00:30:11;0.90;;;0.90;;
6551;SDS011;3309;48.708;9.290;2023-04-03T00:32:38;0.83;;;0.83;;
6551;SDS011;3309;48.708;9.290;2023-04-03T00:35:04;0.70;;;0.70;;
6551;SDS011;3309;48.708;9.290;2023-04-03T00:37:30;0.90;;;0.90;;
6551;SDS011;3309;48.708;9.290;2023-04-03T00:39:56;0.90;;;0.90;;
6551;SDS011;3309;48.708;9.290;2023-04-03T00:42:22;0.90;;;0.90;;
6551;SDS011;3309;48.708;9.290;2023-04-03T00:47:16;0.80;;;0.80;;
6551;SDS011;3309;48.708;9.290;2023-04-03T00:49:42;0.80;;;0.80;;
6551;SDS011;3309;48.708;9.290;2023-04-03T00:52:10;0.80;;;0.80;;
6551;SDS011;3309;48.708;9.290;2023-04-03T00:54:37;0.90;;;0.90;;
6551;SDS011;3309;48.708;9.290;2023-04-03T00:57:04;0.90;;;0.90;;
6551;SDS011;3309;48.708;9.290;2023-04-03T00:59:32;0.80;;;0.80;;
6551;SDS011;3309;48.708;9.290;2023-04-03T01:01:59;0.80;;;0.80;;
6551;SDS011;3309;48.708;9.290;2023-04-03T01:04:29;0.80;;;0.80;;
6551;SDS011;3309;48.708;9.290;2023-04-03T01:06:56;0.80;;;0.80;;
6551;SDS011;3309;48.708;9.290;2023-04-03T01:09:24;0.90;;;0.90;;
6551;SDS011;3309;48.708;9.290;2023-04-03T01:11:51;0.90;;;0.90;;
6551;SDS011;3309;48.708;9.290;2023-04-03T01:14:17;1.00;;;1.00;;
6551;SDS011;3309;48.708;9.290;2023-04-03T01:16:43;0.80;;;0.80;;
6551;SDS011;3309;48.708;9.290;2023-04-03T01:19:11;0.80;;;0.80;;
6551;SDS011;3309;48.708;9.290;2023-04-03T01:24:11;0.90;;;0.90;;
6551;SDS011;3309;48.708;9.290;2023-04-03T01:26:37;0.70;;;0.70;;
6551;SDS011;3309;48.708;9.290;2023-04-03T01:29:04;0.83;;;0.83;;
6551;SDS011;3309;48.708;9.290;2023-04-03T01:31:45;0.90;;;0.90;;
6551;SDS011;3309;48.708;9.290;2023-04-03T01:34:11;0.80;;;0.80;;
6551;SDS011;3309;48.708;9.290;2023-04-03T01:36:37;0.83;;;0.83;;
6551;SDS011;3309;48.708;9.290;2023-04-03T01:39:03;0.70;;;0.70;;
6551;SDS011;3309;48.708;9.290;2023-04-03T01:41:29;0.80;;;0.80;;
6551;SDS011;3309;48.708;9.290;2023-04-03T01:43:55;0.80;;;0.80;;
6551;SDS011;3309;48.708;9.290;2023-04-03T01:46:21;0.80;;;0.80;;
6551;SDS011;3309;48.708;9.290;2023-04-03T01:48:48;0.90;;;0.90;;
6551;SDS011;3309;48.708;9.290;2023-04-03T01:51:14;0.83;;;0.83;;
6551;SDS011;3309;48.708;9.290;2023-04-03T01:53:40;0.80;;;0.80;;
6551;SDS011;3309;48.708;9.290;2023-04-03T01:56:06;0.80;;;0.80;;
6551;SDS011;3309;48.708;9.290;2023-04-03T01:58:32;0.90;;;0.90;;
6551;SDS011;3309;48.708;9.290;2023-04-03T02:00:58;0.80;;;0.80;;
6551;SDS011;3309;48.708;9.290;2023-04-03T02:03:24;0.70;;;0.70;;
6551;SDS011;3309;48.708;9.290;2023-04-03T02:05:50;0.80;;;0.80;;
6551;SDS011;3309;48.708;9.290;2023-04-03T02:08:16;0.90;;;0.90;;
6551;SDS011;3309;48.708;9.290;2023-04-03T02:10:48;0.90;;;0.90;;
6551;SDS011;3309;48.708;9.290;2023-04-03T02:13:15;0.80;;;0.80;;
6551;SDS011;3309;48.708;9.290;2023-04-03T02:15:41;0.80;;;0.80;;
6551;SDS011;3309;48.708;9.290;2023-04-03T02:18:07;0.80;;;0.80;;
6551;SDS011;3309;48.708;9.290;2023-04-03T02:20:33;0.80;;;0.80;;
6551;SDS011;3309;48.708;9.290;2023-04-03T02:23:00;1.00;;;1.00;;
6551;SDS011;3309;48.708;9.290;2023-04-03T02:25:26;0.90;;;0.90;;
6551;SDS011;3309;48.708;9.290;2023-04-03T02:27:52;0.70;;;0.70;;
6551;SDS011;3309;48.708;9.290;2023-04-03T02:30:18;0.80;;;0.80;;
6551;SDS011;3309;48.708;9.290;2023-04-03T02:32:44;0.87;;;0.87;;
6551;SDS011;3309;48.708;9.290;2023-04-03T02:35:10;0.80;;;0.80;;
6551;SDS011;3309;48.708;9.290;2023-04-03T02:37:36;0.90;;;0.90;;
6551;SDS011;3309;48.708;9.290;2023-04-03T02:40:03;0.90;;;0.90;;
6551;SDS011;3309;48.708;9.290;2023-04-03T02:42:29;0.70;;;0.70;;
6551;SDS011;3309;48.708;9.290;2023-04-03T02:44:55;0.90;;;0.90;;
6551;SDS011;3309;48.708;9.290;2023-04-03T02:47:21;0.87;;;0.87;;
6551;SDS011;3309;48.708;9.290;2023-04-03T02:49:47;0.90;;;0.90;;
6551;SDS011;3309;48.708;9.290;2023-04-03T02:52:13;0.80;;;0.80;;
6551;SDS011;3309;48.708;9.290;2023-04-03T02:54:39;0.80;;;0.80;;
6551;SDS011;3309;48.708;9.290;2023-04-03T02:57:06;0.80;;;0.80;;
6551;SDS011;3309;48.708;9.290;2023-04-03T02:59:38;0.80;;;0.80;;
6551;SDS011;3309;48.708;9.290;2023-04-03T03:02:05;0.90;;;0.90;;
6551;SDS011;3309;48.708;9.290;2023-04-03T03:04:32;0.80;;;0.80;;
6551;SDS011;3309;48.708;9.290;2023-04-03T03:06:58;0.77;;;0.77;;
6551;SDS011;3309;48.708;9.290;2023-04-03T03:09:24;0.90;;;0.90;;
6551;SDS011;3309;48.708;9.290;2023-04-03T03:11:51;0.90;;;0.90;;
6551;SDS011;3309;48.708;9.290;2023-04-03T03:14:17;0.80;;;0.80;;
6551;SDS011;3309;48.708;9.290;2023-04-03T03:16:43;0.90;;;0.90;;
6551;SDS011;3309;48.708;9.290;2023-04-03T03:19:09;0.90;;;0.90;;
6551;SDS011;3309;48.708;9.290;2023-04-03T03:21:35;0.80;;;0.80;;
6551;SDS011;3309;48.708;9.290;2023-04-03T03:24:01;0.80;;;0.80;;
6551;SDS011;3309;48.708;9.290;2023-04-03T03:26:27;0.90;;;0.90;;
6551;SDS011;3309;48.708;9.290;2023-04-03T03:28:53;0.80;;;0.80;;
6551;SDS011;3309;48.708;9.290;2023-04-03T03:31:19;0.80;;;0.80;;
6551;SDS011;3309;48.708;9.290;2023-04-03T03:33:46;0.90;;;0.90;;
6551;SDS011;3309;48.708;9.290;2023-04-03T03:36:12;0.80;;;0.80;;
6551;SDS011;3309;48.708;9.290;2023-04-03T03:38:38;0.90;;;0.90;;
6551;SDS011;3309;48.708;9.290;2023-04-03T03:41:04;0.90;;;0.90;;
6551;SDS011;3309;48.708;9.290;2023-04-03T03:43:30;1.00;;;1.00;;
6551;SDS011;3309;48.708;9.290;2023-04-03T03:45:56;0.80;;;0.80;;
6551;SDS011;3309;48.708;9.290;2023-04-03T03:48:22;0.90;;;0.90;;
6551;SDS011;3309;48.708;9.290;2023-04-03T03:50:48;0.90;;;0.90;;
6551;SDS011;3309;48.708;9.290;2023-04-03T03:53:15;0.90;;;0.90;;
6551;SDS011;3309;48.708;9.290;2023-04-03T03:55:41;1.00;;;1.00;;
6551;SDS011;3309;48.708;9.290;2023-04-03T03:58:07;0.90;;;0.90;;
6551;SDS011;3309;48.708;9.290;2023-04-03T04:00:33;0.90;;;0.90;;
6551;SDS011;3309;48.708;9.290;2023-04-03T04:02:59;0.87;;;0.87;;
6551;SDS011;3309;48.708;9.290;2023-04-03T04:05:25;0.90;;;0.90;;
6551;SDS011;3309;48.708;9.290;2023-04-03T04:07:51;0.90;;;0.90;;
6551;SDS011;3309;48.708;9.290;2023-04-03T04:10:17;0.90;;;0.90;;
6551;SDS011;3309;48.708;9.290;2023-04-03T04:12:43;0.80;;;0.80;;
6551;SDS011;3309;48.708;9.290;2023-04-03T04:15:10;0.90;;;0.90;;
6551;SDS011;3309;48.708;9.290;2023-04-03T04:17:36;0.80;;;0.80;;
6551;SDS011;3309;48.708;9.290;2023-04-03T04:20:02;0.80;;;0.80;;
6551;SDS011;3309;48.708;9.290;2023-04-03T04:22:30;0.80;;;0.80;;
6551;SDS011;3309;48.708;9.290;2023-04-03T04:24:56;0.90;;;0.90;;
6551;SDS011;3309;48.708;9.290;2023-04-03T04:27:22;0.90;;;0.90;;
6551;SDS011;3309;48.708;9.290;2023-04-03T04:29:48;0.90;;;0.90;;
6551;SDS011;3309;48.708;9.290;2023-04-03T04:32:14;0.90;;;0.90;;
6551;SDS011;3309;48.708;9.290;2023-04-03T04:34:40;0.90;;;0.90;;
6551;SDS011;3309;48.708;9.290;2023-04-03T04:37:06;0.90;;;0.90;;
6551;SDS011;3309;48.708;9.290;2023-04-03T04:39:31;0.80;;;0.80;;
6551;SDS011;3309;48.708;9.290;2023-04-03T04:41:57;0.90;;;0.90;;
6551;SDS011;3309;48.708;9.290;2023-04-03T04:44:23;0.80;;;0.80;;
6551;SDS011;3309;48.708;9.290;2023-04-03T04:46:50;0.90;;;0.90;;
6551;SDS011;3309;48.708;9.290;2023-04-03T04:49:16;0.80;;;0.80;;
6551;SDS011;3309;48.708;9.290;2023-04-03T04:51:41;0.87;;;0.87;;
6551;SDS011;3309;48.708;9.290;2023-04-03T04:54:07;0.90;;;0.90;;
6551;SDS011;3309;48.708;9.290;2023-04-03T04:56:33;0.83;;;0.83;;
6551;SDS011;3309;48.708;9.290;2023-04-03T04:58:59;0.70;;;0.70;;
6551;SDS011;3309;48.708;9.290;2023-04-03T05:01:25;0.80;;;0.80;;
6551;SDS011;3309;48.708;9.290;2023-04-03T05:03:51;0.80;;;0.80;;
6551;SDS011;3309;48.708;9.290;2023-04-03T05:06:18;0.70;;;0.70;;
6551;SDS011;3309;48.708;9.290;2023-04-03T05:08:44;0.70;;;0.70;;
6551;SDS011;3309;48.708;9.290;2023-04-03T05:11:10;0.80;;;0.80;;
6551;SDS011;3309;48.708;9.290;2023-04-03T05:13:36;0.90;;;0.90;;
6551;SDS011;3309;48.708;9.290;2023-04-03T05:16:02;0.90;;;0.90;;
6551;SDS011;3309;48.708;9.290;2023-04-03T05:18:28;0.90;;;0.90;;
6551;SDS011;3309;48.708;9.290;2023-04-03T05:20:54;0.83;;;0.83;;
6551;SDS011;3309;48.708;9.290;2023-04-03T05:23:20;0.80;;;0.80;;
6551;SDS011;3309;48.708;9.290;2023-04-03T05:25:46;0.90;;;0.90;;
6551;SDS011;3309;48.708;9.290;2023-04-03T05:28:13;0.80;;;0.80;;
6551;SDS011;3309;48.708;9.290;2023-04-03T05:30:39;0.90;;;0.90;;
6551;SDS011;3309;48.708;9.290;2023-04-03T05:33:05;0.90;;;0.90;;
6551;SDS011;3309;48.708;9.290;2023-04-03T05:35:31;0.90;;;0.90;;
6551;SDS011;3309;48.708;9.290;2023-04-03T05:37:57;0.80;;;0.80;;
6551;SDS011;3309;48.708;9.290;2023-04-03T05:40:23;0.70;;;0.70;;
6551;SDS011;3309;48.708;9.290;2023-04-03T05:42:50;0.70;;;0.70;;
6551;SDS011;3309;48.708;9.290;2023-04-03T05:45:18;0.90;;;0.90;;
6551;SDS011;3309;48.708;9.290;2023-04-03T05:47:44;0.80;;;0.80;;
6551;SDS011;3309;48.708;9.290;2023-04-03T05:50:10;0.87;;;0.87;;
6551;SDS011;3309;48.708;9.290;2023-04-03T05:52:37;0.80;;;0.80;;
6551;SDS011;3309;48.708;9.290;2023-04-03T05:55:04;0.90;;;0.90;;
6551;SDS011;3309;48.708;9.290;2023-04-03T05:57:30;0.80;;;0.80;;
6551;SDS011;3309;48.708;9.290;2023-04-03T05:59:56;0.80;;;0.80;;
6551;SDS011;3309;48.708;9.290;2023-04-03T06:02:23;0.80;;;0.80;;
6551;SDS011;3309;48.708;9.290;2023-04-03T06:04:50;0.80;;;0.80;;
6551;SDS011;3309;48.708;9.290;2023-04-03T06:07:17;0.70;;;0.70;;
6551;SDS011;3309;48.708;9.290;2023-04-03T06:09:46;0.90;;;0.90;;
6551;SDS011;3309;48.708;9.290;2023-04-03T06:12:12;0.80;;;0.80;;
6551;SDS011;3309;48.708;9.290;2023-04-03T06:14:38;0.80;;;0.80;;
6551;SDS011;3309;48.708;9.290;2023-04-03T06:17:04;0.83;;;0.83;;
6551;SDS011;3309;48.708;9.290;2023-04-03T06:19:31;0.90;;;0.90;;
6551;SDS011;3309;48.708;9.290;2023-04-03T06:21:58;0.80;;;0.80;;
6551;SDS011;3309;48.708;9.290;2023-04-03T06:24:24;0.90;;;0.90;;
6551;SDS011;3309;48.708;9.290;2023-04-03T06:26:50;0.70;;;0.70;;
6551;SDS011;3309;48.708;9.290;2023-04-03T06:29:18;0.80;;;0.80;;
6551;SDS011;3309;48.708;9.290;2023-04-03T06:31:44;0.80;;;0.80;;
6551;SDS011;3309;48.708;9.290;2023-04-03T06:34:10;0.80;;;0.80;;
6551;SDS011;3309;48.708;9.290;2023-04-03T06:36:37;0.73;;;0.73;;
6551;SDS011;3309;48.708;9.290;2023-04-03T06:39:04;0.80;;;0.80;;
6551;SDS011;3309;48.708;9.290;2023-04-03T06:41:30;0.80;;;0.80;;
6551;SDS011;3309;48.708;9.290;2023-04-03T06:43:56;0.80;;;0.80;;
6551;SDS011;3309;48.708;9.290;2023-04-03T06:46:23;0.80;;;0.80;;
6551;SDS011;3309;48.708;9.290;2023-04-03T06:48:50;0.80;;;0.80;;
6551;SDS011;3309;48.708;9.290;2023-04-03T06:51:20;0.80;;;0.80;;
6551;SDS011;3309;48.708;9.290;2023-04-03T06:53:47;0.80;;;0.80;;
6551;SDS011;3309;48.708;9.290;2023-04-03T06:56:14;0.90;;;0.90;;
6551;SDS011;3309;48.708;9.290;2023-04-03T06:58:40;0.80;;;0.80;;
6551;SDS011;3309;48.708;9.290;2023-04-03T07:01:07;0.90;;;0.90;;
6551;SDS011;3309;48.708;9.290;2023-04-03T07:03:34;0.70;;;0.70;;
6551;SDS011;3309;48.708;9.290;2023-04-03T07:06:00;0.90;;;0.90;;
6551;SDS011;3309;48.708;9.290;2023-04-03T07:08:26;0.70;;;0.70;;
6551;SDS011;3309;48.708;9.290;2023-04-03T07:10:52;0.80;;;0.80;;
6551;SDS011;3309;48.708;9.290;2023-04-03T07:13:18;0.80;;;0.80;;
6551;SDS011;3309;48.708;9.290;2023-04-03T07:15:44;0.90;;;0.90;;
6551;SDS011;3309;48.708;9.290;2023-04-03T07:18:10;0.90;;;0.90;;
6551;SDS011;3309;48.708;9.290;2023-04-03T07:20:36;0.77;;;0.77;;
6551;SDS011;3309;48.708;9.290;2023-04-03T07:23:04;0.87;;;0.87;;
6551;SDS011;3309;48.708;9.290;2023-04-03T07:25:30;0.70;;;0.70;;
6551;SDS011;3309;48.708;9.290;2023-04-03T07:27:56;0.80;;;0.80;;
6551;SDS011;3309;48.708;9.290;2023-04-03T07:30:22;0.80;;;0.80;;
6551;SDS011;3309;48.708;9.290;2023-04-03T07:32:48;0.70;;;0.70;;
6551;SDS011;3309;48.708;9.290;2023-04-03T07:35:15;0.70;;;0.70;;
6551;SDS011;3309;48.708;9.290;2023-04-03T07:37:42;0.70;;;0.70;;
6551;SDS011;3309;48.708;9.290;2023-04-03T07:40:08;0.77;;;0.77;;
6551;SDS011;3309;48.708;9.290;2023-04-03T07:42:34;0.80;;;0.80;;
6551;SDS011;3309;48.708;9.290;2023-04-03T07:45:01;0.70;;;0.70;;
6551;SDS011;3309;48.708;9.290;2023-04-03T07:47:27;0.80;;;0.80;;
6551;SDS011;3309;48.708;9.290;2023-04-03T07:49:53;0.70;;;0.70;;
6551;SDS011;3309;48.708;9.290;2023-04-03T07:52:19;0.80;;;0.80;;
6551;SDS011;3309;48.708;9.290;2023-04-03T07:54:45;0.80;;;0.80;;
6551;SDS011;3309;48.708;9.290;2023-04-03T07:57:11;0.70;;;0.70;;
6551;SDS011;3309;48.708;9.290;2023-04-03T07:59:37;0.60;;;0.60;;
6551;SDS011;3309;48.708;9.290;2023-04-03T08:02:04;0.70;;;0.70;;
6551;SDS011;3309;48.708;9.290;2023-04-03T08:04:30;0.67;;;0.67;;
6551;SDS011;3309;48.708;9.290;2023-04-03T08:06:56;0.60;;;0.60;;
6551;SDS011;3309;48.708;9.290;2023-04-03T08:09:22;0.60;;;0.60;;
6551;SDS011;3309;48.708;9.290;2023-04-03T08:11:48;0.70;;;0.70;;
6551;SDS011;3309;48.708;9.290;2023-04-03T08:14:18;0.70;;;0.70;;
6551;SDS011;3309;48.708;9.290;2023-04-03T08:16:44;0.60;;;0.60;;
6551;SDS011;3309;48.708;9.290;2023-04-03T08:19:11;0.70;;;0.70;;
6551;SDS011;3309;48.708;9.290;2023-04-03T08:21:39;0.60;;;0.60;;
6551;SDS011;3309;48.708;9.290;2023-04-03T08:24:06;0.70;;;0.70;;
6551;SDS011;3309;48.708;9.290;2023-04-03T08:26:32;0.60;;;0.60;;
6551;SDS011;3309;48.708;9.290;2023-04-03T08:28:58;0.70;;;0.70;;
6551;SDS011;3309;48.708;9.290;2023-04-03T08:31:24;0.70;;;0.70;;
6551;SDS011;3309;48.708;9.290;2023-04-03T08:33:50;0.70;;;0.70;;
6551;SDS011;3309;48.708;9.290;2023-04-03T08:36:20;0.70;;;0.70;;
6551;SDS011;3309;48.708;9.290;2023-04-03T08:38:46;0.70;;;0.70;;
6551;SDS011;3309;48.708;9.290;2023-04-03T08:46:51;0.70;;;0.70;;
6551;SDS011;3309;48.708;9.290;2023-04-03T08:49:21;0.70;;;0.70;;
6551;SDS011;3309;48.708;9.290;2023-04-03T08:51:48;0.70;;;0.70;;
6551;SDS011;3309;48.708;9.290;2023-04-03T08:54:27;0.80;;;0.80;;
6551;SDS011;3309;48.708;9.290;2023-04-03T08:56:54;0.70;;;0.70;;
6551;SDS011;3309;48.708;9.290;2023-04-03T08:59:25;0.73;;;0.73;;
6551;SDS011;3309;48.708;9.290;2023-04-03T09:01:52;0.80;;;0.80;;
6551;SDS011;3309;48.708;9.290;2023-04-03T09:04:18;0.80;;;0.80;;
6551;SDS011;3309;48.708;9.290;2023-04-03T09:06:57;0.80;;;0.80;;
6551;SDS011;3309;48.708;9.290;2023-04-03T09:09:30;0.60;;;0.60;;
6551;SDS011;3309;48.708;9.290;2023-04-03T09:16:59;0.80;;;0.80;;
6551;SDS011;3309;48.708;9.290;2023-04-03T09:22:03;0.80;;;0.80;;
6551;SDS011;3309;48.708;9.290;2023-04-03T09:24:29;0.70;;;0.70;;
6551;SDS011;3309;48.708;9.290;2023-04-03T09:27:15;0.60;;;0.60;;
6551;SDS011;3309;48.708;9.290;2023-04-03T09:29:42;0.67;;;0.67;;
6551;SDS011;3309;48.708;9.290;2023-04-03T09:32:21;0.70;;;0.70;;
6551;SDS011;3309;48.708;9.290;2023-04-03T09:34:47;0.70;;;0.70;;
6551;SDS011;3309;48.708;9.290;2023-04-03T09:37:37;0.70;;;0.70;;
6551;SDS011;3309;48.708;9.290;2023-04-03T09:40:02;0.60;;;0.60;;
6551;SDS011;3309;48.708;9.290;2023-04-03T09:42:29;0.60;;;0.60;;
6551;SDS011;3309;48.708;9.290;2023-04-03T09:45:00;0.60;;;0.60;;
6551;SDS011;3309;48.708;9.290;2023-04-03T09:47:30;0.60;;;0.60;;
6551;SDS011;3309;48.708;9.290;2023-04-03T09:52:40;0.63;;;0.63;;
6551;SDS011;3309;48.708;9.290;2023-04-03T09:55:16;0.60;;;0.60;;
6551;SDS011;3309;48.708;9.290;2023-04-03T09:57:42;0.60;;;0.60;;
6551;SDS011;3309;48.708;9.290;2023-04-03T10:02:49;0.60;;;0.60;;
6551;SDS011;3309;48.708;9.290;2023-04-03T10:05:27;0.73;;;0.73;;
6551;SDS011;3309;48.708;9.290;2023-04-03T10:11:04;0.80;;;0.80;;
6551;SDS011;3309;48.708;9.290;2023-04-03T10:13:31;0.67;;;0.67;;
6551;SDS011;3309;48.708;9.290;2023-04-03T10:16:06;0.70;;;0.70;;
6551;SDS011;3309;48.708;9.290;2023-04-03T10:18:57;0.70;;;0.70;;
6551;SDS011;3309;48.708;9.290;2023-04-03T10:23:55;0.70;;;0.70;;
6551;SDS011;3309;48.708;9.290;2023-04-03T10:26:29;0.60;;;0.60;;
6551;SDS011;3309;48.708;9.290;2023-04-03T10:31:35;0.60;;;0.60;;
6551;SDS011;3309;48.708;9.290;2023-04-03T10:34:06;0.60;;;0.60;;
6551;SDS011;3309;48.708;9.290;2023-04-03T10:36:40;0.77;;;0.77;;
6551;SDS011;3309;48.708;9.290;2023-04-03T10:39:15;0.77;;;0.77;;
6551;SDS011;3309;48.708;9.290;2023-04-03T10:42:05;0.70;;;0.70;;
6551;SDS011;3309;48.708;9.290;2023-04-03T10:46:57;0.60;;;0.60;;
6551;SDS011;3309;48.708;9.290;2023-04-03T10:52:00;0.70;;;0.70;;
6551;SDS011;3309;48.708;9.290;2023-04-03T10:54:45;0.63;;;0.63;;
6551;SDS011;3309;48.708;9.290;2023-04-03T10:57:12;0.73;;;0.73;;
6551;SDS011;3309;48.708;9.290;2023-04-03T11:05:34;0.67;;;0.67;;
6551;SDS011;3309;48.708;9.290;2023-04-03T11:07:39;0.77;;;0.77;;
6551;SDS011;3309;48.708;9.290;2023-04-03T11:10:25;0.70;;;0.70;;
6551;SDS011;3309;48.708;9.290;2023-04-03T11:12:57;0.60;;;0.60;;
6551;SDS011;3309;48.708;9.290;2023-04-03T11:15:24;0.70;;;0.70;;
6551;SDS011;3309;48.708;9.290;2023-04-03T11:17:58;0.70;;;0.70;;
6551;SDS011;3309;48.708;9.290;2023-04-03T11:20:27;0.60;;;0.60;;
6551;SDS011;3309;48.708;9.290;2023-04-03T11:23:00;0.70;;;0.70;;
6551;SDS011;3309;48.708;9.290;2023-04-03T11:25:26;0.70;;;0.70;;
6551;SDS011;3309;48.708;9.290;2023-04-03T11:35:22;0.70;;;0.70;;
6551;SDS011;3309;48.708;9.290;2023-04-03T11:37:53;0.70;;;0.70;;
6551;SDS011;3309;48.708;9.290;2023-04-03T11:40:21;0.70;;;0.70;;
6551;SDS011;3309;48.708;9.290;2023-04-03T11:43:33;0.70;;;0.70;;
6551;SDS011;3309;48.708;9.290;2023-04-03T11:45:35;0.70;;;0.70;;
6551;SDS011;3309;48.708;9.290;2023-04-03T12:05:53;0.70;;;0.70;;
6551;SDS011;3309;48.708;9.290;2023-04-03T12:13:38;0.70;;;0.70;;
6551;SDS011;3309;48.708;9.290;2023-04-03T12:16:05;0.70;;;0.70;;
6551;SDS011;3309;48.708;9.290;2023-04-03T12:20:58;0.70;;;0.70;;
6551;SDS011;3309;48.708;9.290;2023-04-03T12:23:25;0.60;;;0.60;;
6551;SDS011;3309;48.708;9.290;2023-04-03T12:25:51;0.70;;;0.70;;
6551;SDS011;3309;48.708;9.290;2023-04-03T12:28:25;0.63;;;0.63;;
6551;SDS011;3309;48.708;9.290;2023-04-03T12:30:52;0.70;;;0.70;;
6551;SDS011;3309;48.708;9.290;2023-04-03T12:36:09;0.70;;;0.70;;
6551;SDS011;3309;48.708;9.290;2023-04-03T12:38:48;0.70;;;0.70;;
6551;SDS011;3309;48.708;9.290;2023-04-03T12:41:31;0.60;;;0.60;;
6551;SDS011;3309;48.708;9.290;2023-04-03T12:46:28;0.70;;;0.70;;
6551;SDS011;3309;48.708;9.290;2023-04-03T12:48:59;0.70;;;0.70;;
6551;SDS011;3309;48.708;9.290;2023-04-03T12:51:28;0.60;;;0.60;;
6551;SDS011;3309;48.708;9.290;2023-04-03T12:54:03;0.70;;;0.70;;
6551;SDS011;3309;48.708;9.290;2023-04-03T12:56:31;0.60;;;0.60;;
6551;SDS011;3309;48.708;9.290;2023-04-03T13:01:42;0.77;;;0.77;;
6551;SDS011;3309;48.708;9.290;2023-04-03T13:04:10;0.70;;;0.70;;
6551;SDS011;3309;48.708;9.290;2023-04-03T13:06:40;0.70;;;0.70;;
6551;SDS011;3309;48.708;9.290;2023-04-03T13:09:14;0.77;;;0.77;;
6551;SDS011;3309;48.708;9.290;2023-04-03T13:11:43;0.60;;;0.60;;
6551;SDS011;3309;48.708;9.290;2023-04-03T13:14:17;0.67;;;0.67;;
6551;SDS011;3309;48.708;9.290;2023-04-03T13:17:03;0.60;;;0.60;;
6551;SDS011;3309;48.708;9.290;2023-04-03T13:19:29;0.60;;;0.60;;
6551;SDS011;3309;48.708;9.290;2023-04-03T13:22:01;0.60;;;0.60;;
6551;SDS011;3309;48.708;9.290;2023-04-03T13:24:28;0.60;;;0.60;;
6551;SDS011;3309;48.708;9.290;2023-04-03T13:26:55;0.70;;;0.70;;
6551;SDS011;3309;48.708;9.290;2023-04-03T13:29:23;0.70;;;0.70;;
6551;SDS011;3309;48.708;9.290;2023-04-03T13:31:52;0.70;;;0.70;;
6551;SDS011;3309;48.708;9.290;2023-04-03T13:34:19;0.70;;;0.70;;
6551;SDS011;3309;48.708;9.290;2023-04-03T13:36:55;0.70;;;0.70;;
6551;SDS011;3309;48.708;9.290;2023-04-03T13:39:23;0.70;;;0.70;;
6551;SDS011;3309;48.708;9.290;2023-04-03T13:41:53;0.70;;;0.70;;
6551;SDS011;3309;48.708;9.290;2023-04-03T13:46:52;0.73;;;0.73;;
6551;SDS011;3309;48.708;9.290;2023-04-03T13:49:20;0.80;;;0.80;;
6551;SDS011;3309;48.708;9.290;2023-04-03T13:51:46;0.70;;;0.70;;
6551;SDS011;3309;48.708;9.290;2023-04-03T13:54:23;0.70;;;0.70;;
6551;SDS011;3309;48.708;9.290;2023-04-03T13:56:53;0.60;;;0.60;;
6551;SDS011;3309;48.708;9.290;2023-04-03T13:59:30;0.60;;;0.60;;
6551;SDS011;3309;48.708;9.290;2023-04-03T14:04:30;0.70;;;0.70;;
6551;SDS011;3309;48.708;9.290;2023-04-03T14:06:56;0.60;;;0.60;;
6551;SDS011;3309;48.708;9.290;2023-04-03T14:09:22;0.70;;;0.70;;
6551;SDS011;3309;48.708;9.290;2023-04-03T14:11:49;0.70;;;0.70;;
6551;SDS011;3309;48.708;9.290;2023-04-03T14:14:20;0.60;;;0.60;;
6551;SDS011;3309;48.708;9.290;2023-04-03T14:16:49;0.63;;;0.63;;
6551;SDS011;3309;48.708;9.290;2023-04-03T14:19:19;0.70;;;0.70;;
6551;SDS011;3309;48.708;9.290;2023-04-03T14:21:45;0.73;;;0.73;;
6551;SDS011;3309;48.708;9.290;2023-04-03T14:24:11;0.60;;;0.60;;
6551;SDS011;3309;48.708;9.290;2023-04-03T14:26:37;0.63;;;0.63;;
6551;SDS011;3309;48.708;9.290;2023-04-03T14:29:03;0.60;;;0.60;;
6551;SDS011;3309;48.708;9.290;2023-04-03T14:31:30;0.70;;;0.70;;
6551;SDS011;3309;48.708;9.290;2023-04-03T14:33:56;0.70;;;0.70;;
6551;SDS011;3309;48.708;9.290;2023-04-03T14:36:23;0.67;;;0.67;;
6551;SDS011;3309;48.708;9.290;2023-04-03T14:38:51;0.73;;;0.73;;
6551;SDS011;3309;48.708;9.290;2023-04-03T14:41:19;0.60;;;0.60;;
6551;SDS011;3309;48.708;9.290;2023-04-03T14:43:46;0.60;;;0.60;;
6551;SDS011;3309;48.708;9.290;2023-04-03T14:49:12;0.70;;;0.70;;
6551;SDS011;3309;48.708;9.290;2023-04-03T14:51:39;0.80;;;0.80;;
6551;SDS011;3309;48.708;9.290;2023-04-03T14:54:05;0.70;;;0.70;;
6551;SDS011;3309;48.708;9.290;2023-04-03T14:56:36;0.70;;;0.70;;
6551;SDS011;3309;48.708;9.290;2023-04-03T14:59:04;0.70;;;0.70;;
6551;SDS011;3309;48.708;9.290;2023-04-03T15:01:30;0.70;;;0.70;;
6551;SDS011;3309;48.708;9.290;2023-04-03T15:03:56;0.70;;;0.70;;
6551;SDS011;3309;48.708;9.290;2023-04-03T15:06:22;0.80;;;0.80;;
6551;SDS011;3309;48.708;9.290;2023-04-03T15:08:48;0.70;;;0.70;;
6551;SDS011;3309;48.708;9.290;2023-04-03T15:11:14;0.70;;;0.70;;
6551;SDS011;3309;48.708;9.290;2023-04-03T15:13:40;0.70;;;0.70;;
6551;SDS011;3309;48.708;9.290;2023-04-03T15:16:14;0.67;;;0.67;;
6551;SDS011;3309;48.708;9.290;2023-04-03T15:18:41;0.60;;;0.60;;
6551;SDS011;3309;48.708;9.290;2023-04-03T15:21:07;0.70;;;0.70;;
6551;SDS011;3309;48.708;9.290;2023-04-03T15:23:33;0.70;;;0.70;;
6551;SDS011;3309;48.708;9.290;2023-04-03T15:25:59;0.70;;;0.70;;
6551;SDS011;3309;48.708;9.290;2023-04-03T15:28:38;0.70;;;0.70;;
6551;SDS011;3309;48.708;9.290;2023-04-03T15:31:05;0.70;;;0.70;;
6551;SDS011;3309;48.708;9.290;2023-04-03T15:33:31;0.70;;;0.70;;
6551;SDS011;3309;48.708;9.290;2023-04-03T15:35:57;0.70;;;0.70;;
6551;SDS011;3309;48.708;9.290;2023-04-03T15:38:24;0.67;;;0.67;;
6551;SDS011;3309;48.708;9.290;2023-04-03T15:40:50;0.70;;;0.70;;
6551;SDS011;3309;48.708;9.290;2023-04-03T15:43:16;0.60;;;0.60;;
6551;SDS011;3309;48.708;9.290;2023-04-03T15:45:42;0.70;;;0.70;;
6551;SDS011;3309;48.708;9.290;2023-04-03T15:48:09;0.80;;;0.80;;
6551;SDS011;3309;48.708;9.290;2023-04-03T15:50:35;0.80;;;0.80;;
6551;SDS011;3309;48.708;9.290;2023-04-03T15:53:02;0.80;;;0.80;;
6551;SDS011;3309;48.708;9.290;2023-04-03T15:55:29;0.63;;;0.63;;
6551;SDS011;3309;48.708;9.290;2023-04-03T15:57:55;0.70;;;0.70;;
6551;SDS011;3309;48.708;9.290;2023-04-03T16:00:21;0.87;;;0.87;;
6551;SDS011;3309;48.708;9.290;2023-04-03T16:02:48;0.70;;;0.70;;
6551;SDS011;3309;48.708;9.290;2023-04-03T16:05:17;0.70;;;0.70;;
6551;SDS011;3309;48.708;9.290;2023-04-03T16:07:44;0.70;;;0.70;;
6551;SDS011;3309;48.708;9.290;2023-04-03T16:10:11;0.80;;;0.80;;
6551;SDS011;3309;48.708;9.290;2023-04-03T16:12:37;0.70;;;0.70;;
6551;SDS011;3309;48.708;9.290;2023-04-03T16:15:03;0.77;;;0.77;;
6551;SDS011;3309;48.708;9.290;2023-04-03T16:17:29;0.80;;;0.80;;
6551;SDS011;3309;48.708;9.290;2023-04-03T16:19:56;0.70;;;0.70;;
6551;SDS011;3309;48.708;9.290;2023-04-03T16:22:23;0.77;;;0.77;;
6551;SDS011;3309;48.708;9.290;2023-04-03T16:24:50;0.77;;;0.77;;
6551;SDS011;3309;48.708;9.290;2023-04-03T16:27:16;0.80;;;0.80;;
6551;SDS011;3309;48.708;9.290;2023-04-03T16:29:42;0.80;;;0.80;;
6551;SDS011;3309;48.708;9.290;2023-04-03T16:32:08;0.70;;;0.70;;
6551;SDS011;3309;48.708;9.290;2023-04-03T16:34:34;0.73;;;0.73;;
6551;SDS011;3309;48.708;9.290;2023-04-03T16:37:00;0.60;;;0.60;;
6551;SDS011;3309;48.708;9.290;2023-04-03T16:39:26;0.70;;;0.70;;
6551;SDS011;3309;48.708;9.290;2023-04-03T16:41:52;0.70;;;0.70;;
6551;SDS011;3309;48.708;9.290;2023-04-03T16:44:18;0.70;;;0.70;;
6551;SDS011;3309;48.708;9.290;2023-04-03T16:46:44;0.70;;;0.70;;
6551;SDS011;3309;48.708;9.290;2023-04-03T16:49:10;0.70;;;0.70;;